createdAt,value
2017-11-29T15:37:53.776Z,23.0
2017-11-29T15:38:54.405Z,22.9
2017-11-29T15:39:55.141Z,22.8
2017-11-29T15:40:55.930Z,22.8
2017-11-29T15:41:56.667Z,22.9
2017-11-29T15:42:57.305Z,22.9
2017-11-29T15:43:58.105Z,23.0
2017-11-29T15:44:58.747Z,22.9
2017-11-29T15:45:59.469Z,23.1
2017-11-29T15:47:00.202Z,23.1
2017-11-29T15:48:00.841Z,23.0
2017-11-29T15:49:01.580Z,23.1
2017-11-29T15:50:02.321Z,23.2
2017-11-29T15:51:02.961Z,23.4
2017-11-29T15:52:03.639Z,23.4
2017-11-29T15:53:04.382Z,23.4
2017-11-29T15:54:05.024Z,23.4
2017-11-29T15:55:05.663Z,23.6
2017-11-29T15:56:06.303Z,23.6
2017-11-29T15:57:07.044Z,23.7
2017-11-29T15:58:07.687Z,23.6
2017-11-29T15:59:08.430Z,23.8
2017-11-29T16:00:09.170Z,23.9
2017-11-29T16:01:09.815Z,23.9
2017-11-29T16:02:10.455Z,23.9
2017-11-29T16:03:11.096Z,23.9
2017-11-29T16:04:11.988Z,24.0
2017-11-29T16:05:12.630Z,24.0
2017-11-29T16:06:13.271Z,24.0
2017-11-29T16:07:13.911Z,24.1
2017-11-29T16:08:14.556Z,24.1
2017-11-29T16:09:15.197Z,24.1
2017-11-29T16:10:15.840Z,24.2
2017-11-29T16:11:16.482Z,24.3
2017-11-29T16:12:17.170Z,24.3
2017-11-29T16:13:17.814Z,24.2
2017-11-29T16:14:18.458Z,24.3
2017-11-29T16:15:19.201Z,24.3
2017-11-29T16:16:19.842Z,24.3
2017-11-29T16:17:20.485Z,24.4
2017-11-29T16:18:21.128Z,24.5
2017-11-29T16:19:21.770Z,24.4
2017-11-29T16:20:22.513Z,24.4
2017-11-29T16:21:23.155Z,24.4
2017-11-29T16:22:23.797Z,24.5
2017-11-29T16:23:24.437Z,24.5
2017-11-29T16:24:25.080Z,24.5
2017-11-29T16:25:25.723Z,24.5
2017-11-29T16:26:26.372Z,24.6
2017-11-29T16:27:27.017Z,24.5
2017-11-29T16:28:27.761Z,24.6
2017-11-29T16:29:28.409Z,24.5
2017-11-29T16:30:29.138Z,24.6
2017-11-29T16:31:29.986Z,24.6
2017-11-29T16:32:30.730Z,24.7
2017-11-29T16:33:31.476Z,24.6
2017-11-29T16:34:32.121Z,24.6
2017-11-29T16:35:32.765Z,24.7
2017-11-29T16:36:33.412Z,24.6
2017-11-29T16:37:34.056Z,24.6
2017-11-29T16:38:34.701Z,24.6
2017-11-29T16:39:35.344Z,24.6
2017-11-29T16:40:35.994Z,24.7
2017-11-29T16:41:36.731Z,24.6
2017-11-29T16:42:37.373Z,24.6
2017-11-29T16:43:38.164Z,24.6
2017-11-29T16:44:38.811Z,24.6
2017-11-29T16:45:39.453Z,24.6
2017-11-29T16:46:40.096Z,24.7
2017-11-29T16:47:40.844Z,24.7
2017-11-29T16:48:41.481Z,24.8
2017-11-29T16:49:42.122Z,24.6
2017-11-29T16:50:42.764Z,24.6
2017-11-29T16:51:43.408Z,24.7
2017-11-29T16:52:44.049Z,24.8
2017-11-29T16:53:44.693Z,24.8
2017-11-29T16:54:45.337Z,24.7
2017-11-29T16:55:46.002Z,24.7
2017-11-29T16:56:46.825Z,24.8
